sensor_id;sensor_type;location;lat;lon;timestamp;P1;durP1;ratioP1;P2;durP2;ratioP2
15595;SDS011;7898;48.658;9.068;2023-09-30T00:01:42;9.18;;;4.43;;
15595;SDS011;7898;48.658;9.068;2023-09-30T00:04:09;9.70;;;4.15;;
15595;SDS011;7898;48.658;9.068;2023-09-30T00:06:39;8.98;;;3.92;;
15595;SDS011;7898;48.658;9.068;2023-09-30T00:09:07;9.65;;;4.80;;
15595;SDS011;7898;48.658;9.068;2023-09-30T00:11:34;5.80;;;3.78;;
15595;SDS011;7898;48.658;9.068;2023-09-30T00:14:01;10.15;;;4.20;;
15595;SDS011;7898;48.658;9.068;2023-09-30T00:16:27;11.38;;;4.70;;
15595;SDS011;7898;48.658;9.068;2023-09-30T00:18:54;9.55;;;4.35;;
15595;SDS011;7898;48.658;9.068;2023-09-30T00:21:21;9.27;;;4.28;;
15595;SDS011;7898;48.658;9.068;2023-09-30T00:23:48;11.00;;;4.88;;
15595;SDS011;7898;48.658;9.068;2023-09-30T00:26:16;9.40;;;4.38;;
15595;SDS011;7898;48.658;9.068;2023-09-30T00:28:43;11.68;;;4.60;;
15595;SDS011;7898;48.658;9.068;2023-09-30T00:31:10;9.13;;;4.45;;
15595;SDS011;7898;48.658;9.068;2023-09-30T00:33:37;10.23;;;4.30;;
15595;SDS011;7898;48.658;9.068;2023-09-30T00:36:08;9.45;;;3.97;;
15595;SDS011;7898;48.658;9.068;2023-09-30T00:38:36;8.15;;;3.50;;
15595;SDS011;7898;48.658;9.068;2023-09-30T00:41:02;11.50;;;4.38;;
15595;SDS011;7898;48.658;9.068;2023-09-30T00:43:31;8.48;;;4.15;;
15595;SDS011;7898;48.658;9.068;2023-09-30T00:46:01;12.00;;;4.28;;
15595;SDS011;7898;48.658;9.068;2023-09-30T00:48:32;7.60;;;3.60;;
15595;SDS011;7898;48.658;9.068;2023-09-30T00:51:00;7.53;;;4.00;;
15595;SDS011;7898;48.658;9.068;2023-09-30T00:53:27;9.48;;;4.80;;
15595;SDS011;7898;48.658;9.068;2023-09-30T00:55:55;7.93;;;3.60;;
15595;SDS011;7898;48.658;9.068;2023-09-30T00:58:22;7.55;;;4.07;;
15595;SDS011;7898;48.658;9.068;2023-09-30T01:00:55;10.82;;;3.75;;
15595;SDS011;7898;48.658;9.068;2023-09-30T01:03:23;8.05;;;3.72;;
15595;SDS011;7898;48.658;9.068;2023-09-30T01:05:50;7.53;;;3.80;;
15595;SDS011;7898;48.658;9.068;2023-09-30T01:08:17;8.90;;;3.65;;
15595;SDS011;7898;48.658;9.068;2023-09-30T01:10:45;8.15;;;3.83;;
15595;SDS011;7898;48.658;9.068;2023-09-30T01:13:13;6.82;;;3.40;;
15595;SDS011;7898;48.658;9.068;2023-09-30T01:15:40;7.35;;;3.42;;
15595;SDS011;7898;48.658;9.068;2023-09-30T01:18:08;5.40;;;3.45;;
15595;SDS011;7898;48.658;9.068;2023-09-30T01:20:35;11.57;;;4.22;;
15595;SDS011;7898;48.658;9.068;2023-09-30T01:23:02;10.07;;;3.85;;
15595;SDS011;7898;48.658;9.068;2023-09-30T01:25:29;8.43;;;4.28;;
15595;SDS011;7898;48.658;9.068;2023-09-30T01:27:58;9.85;;;4.13;;
15595;SDS011;7898;48.658;9.068;2023-09-30T01:30:31;8.75;;;4.07;;
15595;SDS011;7898;48.658;9.068;2023-09-30T01:32:58;9.35;;;3.65;;
15595;SDS011;7898;48.658;9.068;2023-09-30T01:35:25;7.90;;;3.65;;
15595;SDS011;7898;48.658;9.068;2023-09-30T01:37:52;8.38;;;4.15;;
15595;SDS011;7898;48.658;9.068;2023-09-30T01:40:20;7.78;;;3.83;;
15595;SDS011;7898;48.658;9.068;2023-09-30T01:42:47;10.18;;;4.10;;
15595;SDS011;7898;48.658;9.068;2023-09-30T01:45:14;9.13;;;4.03;;
15595;SDS011;7898;48.658;9.068;2023-09-30T01:47:41;10.30;;;4.35;;
15595;SDS011;7898;48.658;9.068;2023-09-30T01:50:08;8.40;;;3.83;;
15595;SDS011;7898;48.658;9.068;2023-09-30T01:52:35;10.88;;;3.75;;
15595;SDS011;7898;48.658;9.068;2023-09-30T01:55:02;7.45;;;3.83;;
15595;SDS011;7898;48.658;9.068;2023-09-30T01:57:30;8.85;;;4.30;;
15595;SDS011;7898;48.658;9.068;2023-09-30T01:59:57;8.05;;;4.00;;
15595;SDS011;7898;48.658;9.068;2023-09-30T02:02:24;9.23;;;4.05;;
15595;SDS011;7898;48.658;9.068;2023-09-30T02:04:51;5.68;;;3.58;;
15595;SDS011;7898;48.658;9.068;2023-09-30T02:07:19;7.57;;;3.97;;
15595;SDS011;7898;48.658;9.068;2023-09-30T02:09:46;9.38;;;3.63;;
15595;SDS011;7898;48.658;9.068;2023-09-30T02:12:13;8.75;;;3.65;;
15595;SDS011;7898;48.658;9.068;2023-09-30T02:14:42;9.40;;;3.80;;
15595;SDS011;7898;48.658;9.068;2023-09-30T02:17:11;7.88;;;3.85;;
15595;SDS011;7898;48.658;9.068;2023-09-30T02:19:38;7.55;;;4.03;;
15595;SDS011;7898;48.658;9.068;2023-09-30T02:22:06;9.88;;;4.38;;
15595;SDS011;7898;48.658;9.068;2023-09-30T02:24:32;8.00;;;3.58;;
15595;SDS011;7898;48.658;9.068;2023-09-30T02:26:59;9.02;;;3.65;;
15595;SDS011;7898;48.658;9.068;2023-09-30T02:29:26;10.77;;;4.00;;
15595;SDS011;7898;48.658;9.068;2023-09-30T02:31:55;8.88;;;4.40;;
15595;SDS011;7898;48.658;9.068;2023-09-30T02:34:22;7.78;;;3.83;;
15595;SDS011;7898;48.658;9.068;2023-09-30T02:36:49;7.82;;;3.83;;
15595;SDS011;7898;48.658;9.068;2023-09-30T02:39:16;8.82;;;3.95;;
15595;SDS011;7898;48.658;9.068;2023-09-30T02:41:44;7.53;;;3.75;;
15595;SDS011;7898;48.658;9.068;2023-09-30T02:44:11;7.75;;;4.20;;
15595;SDS011;7898;48.658;9.068;2023-09-30T02:46:39;9.40;;;4.05;;
15595;SDS011;7898;48.658;9.068;2023-09-30T02:49:07;10.43;;;4.10;;
15595;SDS011;7898;48.658;9.068;2023-09-30T02:51:34;7.03;;;3.25;;
15595;SDS011;7898;48.658;9.068;2023-09-30T02:54:01;6.00;;;3.30;;
15595;SDS011;7898;48.658;9.068;2023-09-30T02:56:29;9.43;;;3.78;;
15595;SDS011;7898;48.658;9.068;2023-09-30T02:58:56;10.35;;;4.18;;
15595;SDS011;7898;48.658;9.068;2023-09-30T03:01:25;8.02;;;3.95;;
15595;SDS011;7898;48.658;9.068;2023-09-30T03:03:53;9.95;;;4.10;;
15595;SDS011;7898;48.658;9.068;2023-09-30T03:06:21;9.15;;;3.88;;
15595;SDS011;7898;48.658;9.068;2023-09-30T03:08:48;7.80;;;4.05;;
15595;SDS011;7898;48.658;9.068;2023-09-30T03:11:16;8.48;;;3.80;;
15595;SDS011;7898;48.658;9.068;2023-09-30T03:13:45;6.38;;;3.75;;
15595;SDS011;7898;48.658;9.068;2023-09-30T03:16:11;8.15;;;3.80;;
15595;SDS011;7898;48.658;9.068;2023-09-30T03:18:38;10.38;;;3.78;;
15595;SDS011;7898;48.658;9.068;2023-09-30T03:21:12;6.75;;;3.53;;
15595;SDS011;7898;48.658;9.068;2023-09-30T03:23:42;7.85;;;3.97;;
15595;SDS011;7898;48.658;9.068;2023-09-30T03:26:09;9.60;;;4.05;;
15595;SDS011;7898;48.658;9.068;2023-09-30T03:28:36;12.13;;;3.97;;
15595;SDS011;7898;48.658;9.068;2023-09-30T03:31:03;6.60;;;3.25;;
15595;SDS011;7898;48.658;9.068;2023-09-30T03:33:31;5.40;;;3.60;;
15595;SDS011;7898;48.658;9.068;2023-09-30T03:35:58;8.75;;;3.92;;
15595;SDS011;7898;48.658;9.068;2023-09-30T03:38:25;7.20;;;3.13;;
15595;SDS011;7898;48.658;9.068;2023-09-30T03:40:54;6.90;;;3.63;;
15595;SDS011;7898;48.658;9.068;2023-09-30T03:43:22;8.95;;;3.80;;
15595;SDS011;7898;48.658;9.068;2023-09-30T03:45:51;7.07;;;3.28;;
15595;SDS011;7898;48.658;9.068;2023-09-30T03:48:18;6.82;;;3.67;;
15595;SDS011;7898;48.658;9.068;2023-09-30T03:50:46;8.15;;;3.60;;
15595;SDS011;7898;48.658;9.068;2023-09-30T03:53:13;10.05;;;3.95;;
15595;SDS011;7898;48.658;9.068;2023-09-30T03:55:40;6.32;;;3.00;;
15595;SDS011;7898;48.658;9.068;2023-09-30T03:58:08;7.90;;;3.28;;
15595;SDS011;7898;48.658;9.068;2023-09-30T04:00:35;7.88;;;3.53;;
15595;SDS011;7898;48.658;9.068;2023-09-30T04:03:02;8.38;;;3.55;;
15595;SDS011;7898;48.658;9.068;2023-09-30T04:05:29;7.75;;;3.30;;
15595;SDS011;7898;48.658;9.068;2023-09-30T04:08:01;8.02;;;3.53;;
15595;SDS011;7898;48.658;9.068;2023-09-30T04:10:28;9.05;;;3.20;;
15595;SDS011;7898;48.658;9.068;2023-09-30T04:12:55;8.75;;;3.92;;
15595;SDS011;7898;48.658;9.068;2023-09-30T04:15:23;9.55;;;4.25;;
15595;SDS011;7898;48.658;9.068;2023-09-30T04:17:50;8.70;;;4.43;;
15595;SDS011;7898;48.658;9.068;2023-09-30T04:20:17;9.63;;;3.78;;
15595;SDS011;7898;48.658;9.068;2023-09-30T04:22:48;10.27;;;3.90;;
15595;SDS011;7898;48.658;9.068;2023-09-30T04:25:16;7.57;;;3.42;;
15595;SDS011;7898;48.658;9.068;2023-09-30T04:27:43;6.75;;;3.78;;
15595;SDS011;7898;48.658;9.068;2023-09-30T04:30:13;7.82;;;3.65;;
15595;SDS011;7898;48.658;9.068;2023-09-30T04:32:41;8.50;;;3.55;;
15595;SDS011;7898;48.658;9.068;2023-09-30T04:35:08;7.32;;;3.80;;
15595;SDS011;7898;48.658;9.068;2023-09-30T04:37:35;7.25;;;3.40;;
15595;SDS011;7898;48.658;9.068;2023-09-30T04:40:03;6.05;;;3.30;;
15595;SDS011;7898;48.658;9.068;2023-09-30T04:42:34;8.57;;;4.18;;
15595;SDS011;7898;48.658;9.068;2023-09-30T04:45:02;8.40;;;4.05;;
15595;SDS011;7898;48.658;9.068;2023-09-30T04:47:31;9.95;;;3.35;;
15595;SDS011;7898;48.658;9.068;2023-09-30T04:50:00;8.02;;;3.90;;
15595;SDS011;7898;48.658;9.068;2023-09-30T04:52:29;6.30;;;3.08;;
15595;SDS011;7898;48.658;9.068;2023-09-30T04:54:56;8.93;;;3.17;;
15595;SDS011;7898;48.658;9.068;2023-09-30T04:57:25;7.00;;;3.35;;
15595;SDS011;7898;48.658;9.068;2023-09-30T04:59:52;9.45;;;3.67;;
15595;SDS011;7898;48.658;9.068;2023-09-30T05:02:19;9.05;;;3.80;;
15595;SDS011;7898;48.658;9.068;2023-09-30T05:04:45;8.05;;;3.42;;
15595;SDS011;7898;48.658;9.068;2023-09-30T05:07:13;6.97;;;3.38;;
15595;SDS011;7898;48.658;9.068;2023-09-30T05:09:40;7.93;;;4.05;;
15595;SDS011;7898;48.658;9.068;2023-09-30T05:12:08;6.63;;;2.92;;
15595;SDS011;7898;48.658;9.068;2023-09-30T05:14:36;5.85;;;3.45;;
15595;SDS011;7898;48.658;9.068;2023-09-30T05:17:03;6.38;;;3.25;;
15595;SDS011;7898;48.658;9.068;2023-09-30T05:19:30;9.68;;;4.03;;
15595;SDS011;7898;48.658;9.068;2023-09-30T05:21:58;6.15;;;3.53;;
15595;SDS011;7898;48.658;9.068;2023-09-30T05:24:27;9.10;;;4.18;;
15595;SDS011;7898;48.658;9.068;2023-09-30T05:26:54;10.50;;;5.20;;
15595;SDS011;7898;48.658;9.068;2023-09-30T05:29:21;9.38;;;5.38;;
15595;SDS011;7898;48.658;9.068;2023-09-30T05:31:48;6.68;;;4.63;;
15595;SDS011;7898;48.658;9.068;2023-09-30T05:34:15;9.57;;;5.22;;
15595;SDS011;7898;48.658;9.068;2023-09-30T05:36:42;8.27;;;4.03;;
15595;SDS011;7898;48.658;9.068;2023-09-30T05:39:09;8.38;;;4.00;;
15595;SDS011;7898;48.658;9.068;2023-09-30T05:41:38;8.77;;;4.28;;
15595;SDS011;7898;48.658;9.068;2023-09-30T05:44:07;7.15;;;3.55;;
15595;SDS011;7898;48.658;9.068;2023-09-30T05:46:33;7.10;;;3.53;;
15595;SDS011;7898;48.658;9.068;2023-09-30T05:49:00;8.75;;;3.60;;
15595;SDS011;7898;48.658;9.068;2023-09-30T05:51:34;7.22;;;3.42;;
15595;SDS011;7898;48.658;9.068;2023-09-30T05:54:01;7.78;;;3.67;;
15595;SDS011;7898;48.658;9.068;2023-09-30T05:56:30;5.55;;;3.13;;
15595;SDS011;7898;48.658;9.068;2023-09-30T05:58:59;8.55;;;3.90;;
15595;SDS011;7898;48.658;9.068;2023-09-30T06:01:26;6.30;;;3.55;;
15595;SDS011;7898;48.658;9.068;2023-09-30T06:03:53;11.88;;;4.20;;
15595;SDS011;7898;48.658;9.068;2023-09-30T06:06:19;8.25;;;4.25;;
15595;SDS011;7898;48.658;9.068;2023-09-30T06:08:49;10.30;;;3.80;;
15595;SDS011;7898;48.658;9.068;2023-09-30T06:11:16;7.75;;;4.25;;
15595;SDS011;7898;48.658;9.068;2023-09-30T06:13:44;9.38;;;4.32;;
15595;SDS011;7898;48.658;9.068;2023-09-30T06:16:12;8.20;;;4.30;;
15595;SDS011;7898;48.658;9.068;2023-09-30T06:18:41;9.57;;;4.13;;
15595;SDS011;7898;48.658;9.068;2023-09-30T06:21:10;10.35;;;4.65;;
15595;SDS011;7898;48.658;9.068;2023-09-30T06:23:37;8.82;;;4.18;;
15595;SDS011;7898;48.658;9.068;2023-09-30T06:26:04;8.00;;;3.95;;
15595;SDS011;7898;48.658;9.068;2023-09-30T06:28:31;8.90;;;3.60;;
15595;SDS011;7898;48.658;9.068;2023-09-30T06:31:05;5.68;;;3.15;;
15595;SDS011;7898;48.658;9.068;2023-09-30T06:33:34;8.82;;;3.53;;
15595;SDS011;7898;48.658;9.068;2023-09-30T06:36:01;8.20;;;3.88;;
15595;SDS011;7898;48.658;9.068;2023-09-30T06:38:28;8.27;;;4.00;;
15595;SDS011;7898;48.658;9.068;2023-09-30T06:40:55;7.50;;;3.58;;
15595;SDS011;7898;48.658;9.068;2023-09-30T06:43:22;7.63;;;3.95;;
15595;SDS011;7898;48.658;9.068;2023-09-30T06:45:48;8.70;;;4.32;;
15595;SDS011;7898;48.658;9.068;2023-09-30T06:48:15;10.88;;;4.32;;
15595;SDS011;7898;48.658;9.068;2023-09-30T06:50:47;8.93;;;4.32;;
15595;SDS011;7898;48.658;9.068;2023-09-30T06:53:14;6.40;;;4.25;;
15595;SDS011;7898;48.658;9.068;2023-09-30T06:55:42;8.38;;;4.32;;
15595;SDS011;7898;48.658;9.068;2023-09-30T06:58:09;7.43;;;4.47;;
15595;SDS011;7898;48.658;9.068;2023-09-30T07:00:36;8.73;;;4.72;;
15595;SDS011;7898;48.658;9.068;2023-09-30T07:03:04;8.25;;;4.93;;
15595;SDS011;7898;48.658;9.068;2023-09-30T07:05:31;10.73;;;5.90;;
15595;SDS011;7898;48.658;9.068;2023-09-30T07:07:59;7.85;;;4.53;;
15595;SDS011;7898;48.658;9.068;2023-09-30T07:10:26;8.07;;;4.70;;
15595;SDS011;7898;48.658;9.068;2023-09-30T07:12:54;7.78;;;4.32;;
15595;SDS011;7898;48.658;9.068;2023-09-30T07:15:21;8.85;;;4.07;;
15595;SDS011;7898;48.658;9.068;2023-09-30T07:17:48;7.40;;;4.53;;
15595;SDS011;7898;48.658;9.068;2023-09-30T07:20:15;9.23;;;4.72;;
15595;SDS011;7898;48.658;9.068;2023-09-30T07:22:42;9.13;;;3.45;;
15595;SDS011;7898;48.658;9.068;2023-09-30T07:25:11;5.97;;;4.15;;
15595;SDS011;7898;48.658;9.068;2023-09-30T07:27:39;7.75;;;4.18;;
15595;SDS011;7898;48.658;9.068;2023-09-30T07:30:07;5.90;;;4.00;;
15595;SDS011;7898;48.658;9.068;2023-09-30T07:32:34;9.95;;;5.00;;
15595;SDS011;7898;48.658;9.068;2023-09-30T07:35:01;8.60;;;4.55;;
15595;SDS011;7898;48.658;9.068;2023-09-30T07:37:28;7.88;;;4.78;;
15595;SDS011;7898;48.658;9.068;2023-09-30T07:39:55;7.93;;;4.53;;
15595;SDS011;7898;48.658;9.068;2023-09-30T07:42:24;9.18;;;4.78;;
15595;SDS011;7898;48.658;9.068;2023-09-30T07:44:50;9.70;;;4.90;;
15595;SDS011;7898;48.658;9.068;2023-09-30T07:47:17;7.10;;;4.60;;
15595;SDS011;7898;48.658;9.068;2023-09-30T07:49:44;7.18;;;4.40;;
15595;SDS011;7898;48.658;9.068;2023-09-30T07:52:11;7.97;;;4.63;;
15595;SDS011;7898;48.658;9.068;2023-09-30T07:54:38;6.30;;;4.47;;
15595;SDS011;7898;48.658;9.068;2023-09-30T07:57:05;8.55;;;4.22;;
15595;SDS011;7898;48.658;9.068;2023-09-30T07:59:33;5.95;;;4.00;;
15595;SDS011;7898;48.658;9.068;2023-09-30T08:02:00;5.55;;;3.90;;
15595;SDS011;7898;48.658;9.068;2023-09-30T08:04:30;8.25;;;3.83;;
15595;SDS011;7898;48.658;9.068;2023-09-30T08:06:56;6.65;;;3.60;;
15595;SDS011;7898;48.658;9.068;2023-09-30T08:09:23;8.13;;;3.40;;
15595;SDS011;7898;48.658;9.068;2023-09-30T08:11:51;8.55;;;3.92;;
15595;SDS011;7898;48.658;9.068;2023-09-30T08:14:19;8.20;;;4.35;;
15595;SDS011;7898;48.658;9.068;2023-09-30T08:16:47;10.75;;;4.38;;
15595;SDS011;7898;48.658;9.068;2023-09-30T08:19:15;10.73;;;5.43;;
15595;SDS011;7898;48.658;9.068;2023-09-30T08:21:42;7.13;;;5.00;;
15595;SDS011;7898;48.658;9.068;2023-09-30T08:24:10;6.90;;;4.00;;
15595;SDS011;7898;48.658;9.068;2023-09-30T08:26:37;6.03;;;4.07;;
15595;SDS011;7898;48.658;9.068;2023-09-30T08:29:03;5.45;;;4.25;;
15595;SDS011;7898;48.658;9.068;2023-09-30T08:31:31;8.40;;;4.13;;
15595;SDS011;7898;48.658;9.068;2023-09-30T08:34:00;7.28;;;4.22;;
15595;SDS011;7898;48.658;9.068;2023-09-30T08:36:29;7.53;;;4.35;;
15595;SDS011;7898;48.658;9.068;2023-09-30T08:38:56;6.15;;;4.03;;
15595;SDS011;7898;48.658;9.068;2023-09-30T08:41:24;7.70;;;4.20;;
15595;SDS011;7898;48.658;9.068;2023-09-30T08:43:57;6.40;;;4.35;;
15595;SDS011;7898;48.658;9.068;2023-09-30T08:46:27;7.72;;;4.15;;
15595;SDS011;7898;48.658;9.068;2023-09-30T08:48:57;6.45;;;4.03;;
15595;SDS011;7898;48.658;9.068;2023-09-30T08:51:26;7.45;;;4.03;;
15595;SDS011;7898;48.658;9.068;2023-09-30T08:53:56;7.55;;;4.55;;
15595;SDS011;7898;48.658;9.068;2023-09-30T08:56:24;6.65;;;4.60;;
15595;SDS011;7898;48.658;9.068;2023-09-30T08:58:53;7.53;;;4.00;;
15595;SDS011;7898;48.658;9.068;2023-09-30T09:01:23;7.63;;;3.85;;
15595;SDS011;7898;48.658;9.068;2023-09-30T09:03:51;8.98;;;4.70;;
15595;SDS011;7898;48.658;9.068;2023-09-30T09:06:20;7.70;;;4.05;;
15595;SDS011;7898;48.658;9.068;2023-09-30T09:08:47;6.55;;;4.07;;
15595;SDS011;7898;48.658;9.068;2023-09-30T09:11:14;6.78;;;4.57;;
15595;SDS011;7898;48.658;9.068;2023-09-30T09:13:45;7.40;;;5.15;;
15595;SDS011;7898;48.658;9.068;2023-09-30T09:16:15;5.85;;;4.60;;
15595;SDS011;7898;48.658;9.068;2023-09-30T09:18:43;10.27;;;4.80;;
15595;SDS011;7898;48.658;9.068;2023-09-30T09:21:11;7.05;;;4.55;;
15595;SDS011;7898;48.658;9.068;2023-09-30T09:23:41;10.02;;;5.10;;
15595;SDS011;7898;48.658;9.068;2023-09-30T09:26:09;9.27;;;4.90;;
15595;SDS011;7898;48.658;9.068;2023-09-30T09:28:37;5.40;;;3.80;;
15595;SDS011;7898;48.658;9.068;2023-09-30T09:31:20;7.40;;;4.72;;
15595;SDS011;7898;48.658;9.068;2023-09-30T09:33:48;7.85;;;4.05;;
15595;SDS011;7898;48.658;9.068;2023-09-30T09:36:16;7.95;;;4.30;;
15595;SDS011;7898;48.658;9.068;2023-09-30T09:38:46;10.95;;;4.85;;
15595;SDS011;7898;48.658;9.068;2023-09-30T09:41:15;7.82;;;4.50;;
15595;SDS011;7898;48.658;9.068;2023-09-30T09:43:42;5.50;;;4.70;;
15595;SDS011;7898;48.658;9.068;2023-09-30T09:46:10;7.55;;;4.30;;
15595;SDS011;7898;48.658;9.068;2023-09-30T09:48:39;7.22;;;4.47;;
15595;SDS011;7898;48.658;9.068;2023-09-30T09:51:06;8.07;;;4.32;;
15595;SDS011;7898;48.658;9.068;2023-09-30T09:53:38;6.72;;;4.20;;
15595;SDS011;7898;48.658;9.068;2023-09-30T09:56:07;7.43;;;4.50;;
15595;SDS011;7898;48.658;9.068;2023-09-30T09:58:36;6.13;;;4.05;;
15595;SDS011;7898;48.658;9.068;2023-09-30T10:01:06;7.38;;;4.78;;
15595;SDS011;7898;48.658;9.068;2023-09-30T10:03:35;11.48;;;5.25;;
15595;SDS011;7898;48.658;9.068;2023-09-30T10:06:02;8.90;;;5.05;;
15595;SDS011;7898;48.658;9.068;2023-09-30T10:08:31;10.68;;;5.38;;
15595;SDS011;7898;48.658;9.068;2023-09-30T10:11:01;6.60;;;4.97;;
15595;SDS011;7898;48.658;9.068;2023-09-30T10:19:20;7.63;;;5.00;;
15595;SDS011;7898;48.658;9.068;2023-09-30T10:24:48;9.40;;;5.85;;
15595;SDS011;7898;48.658;9.068;2023-09-30T10:30:11;8.70;;;5.28;;
15595;SDS011;7898;48.658;9.068;2023-09-30T10:35:46;8.90;;;4.88;;
15595;SDS011;7898;48.658;9.068;2023-09-30T10:41:07;10.63;;;5.40;;
15595;SDS011;7898;48.658;9.068;2023-09-30T10:43:39;10.13;;;5.32;;
15595;SDS011;7898;48.658;9.068;2023-09-30T10:49:20;8.95;;;5.70;;
15595;SDS011;7898;48.658;9.068;2023-09-30T10:51:57;9.57;;;5.20;;
15595;SDS011;7898;48.658;9.068;2023-09-30T10:54:26;9.70;;;5.13;;
15595;SDS011;7898;48.658;9.068;2023-09-30T10:56:54;10.45;;;5.72;;
15595;SDS011;7898;48.658;9.068;2023-09-30T10:59:24;10.30;;;5.35;;
15595;SDS011;7898;48.658;9.068;2023-09-30T11:01:53;8.48;;;5.28;;
15595;SDS011;7898;48.658;9.068;2023-09-30T11:04:20;7.75;;;5.25;;
15595;SDS011;7898;48.658;9.068;2023-09-30T11:06:47;10.32;;;5.00;;
15595;SDS011;7898;48.658;9.068;2023-09-30T11:09:16;12.27;;;5.75;;
15595;SDS011;7898;48.658;9.068;2023-09-30T11:11:45;9.10;;;5.13;;
15595;SDS011;7898;48.658;9.068;2023-09-30T11:14:18;11.65;;;5.18;;
15595;SDS011;7898;48.658;9.068;2023-09-30T11:16:46;10.90;;;5.82;;
15595;SDS011;7898;48.658;9.068;2023-09-30T11:19:16;12.02;;;6.10;;
15595;SDS011;7898;48.658;9.068;2023-09-30T11:21:46;10.48;;;5.93;;
15595;SDS011;7898;48.658;9.068;2023-09-30T11:24:14;11.98;;;6.05;;
15595;SDS011;7898;48.658;9.068;2023-09-30T11:26:41;12.10;;;6.43;;
15595;SDS011;7898;48.658;9.068;2023-09-30T11:29:09;10.65;;;5.90;;
15595;SDS011;7898;48.658;9.068;2023-09-30T11:31:38;12.65;;;6.90;;
15595;SDS011;7898;48.658;9.068;2023-09-30T11:34:06;13.18;;;6.28;;
15595;SDS011;7898;48.658;9.068;2023-09-30T11:36:38;11.77;;;6.30;;
15595;SDS011;7898;48.658;9.068;2023-09-30T11:39:07;10.13;;;5.95;;
15595;SDS011;7898;48.658;9.068;2023-09-30T11:41:35;13.23;;;6.15;;
15595;SDS011;7898;48.658;9.068;2023-09-30T11:44:07;9.48;;;5.97;;
15595;SDS011;7898;48.658;9.068;2023-09-30T11:46:47;7.75;;;5.18;;
15595;SDS011;7898;48.658;9.068;2023-09-30T11:49:27;10.68;;;5.57;;
15595;SDS011;7898;48.658;9.068;2023-09-30T11:51:56;11.15;;;5.82;;
15595;SDS011;7898;48.658;9.068;2023-09-30T11:54:28;10.68;;;6.07;;
15595;SDS011;7898;48.658;9.068;2023-09-30T11:56:56;11.65;;;6.70;;
15595;SDS011;7898;48.658;9.068;2023-09-30T11:59:24;13.40;;;7.05;;
15595;SDS011;7898;48.658;9.068;2023-09-30T12:01:51;12.45;;;6.28;;
15595;SDS011;7898;48.658;9.068;2023-09-30T12:04:18;10.15;;;6.25;;
15595;SDS011;7898;48.658;9.068;2023-09-30T12:06:45;14.98;;;7.30;;
15595;SDS011;7898;48.658;9.068;2023-09-30T12:09:14;12.32;;;6.60;;
15595;SDS011;7898;48.658;9.068;2023-09-30T12:11:42;13.52;;;5.95;;
15595;SDS011;7898;48.658;9.068;2023-09-30T12:14:10;12.27;;;6.10;;
15595;SDS011;7898;48.658;9.068;2023-09-30T12:16:38;11.75;;;6.35;;
15595;SDS011;7898;48.658;9.068;2023-09-30T12:19:04;11.85;;;6.38;;
15595;SDS011;7898;48.658;9.068;2023-09-30T12:21:32;10.32;;;6.25;;
15595;SDS011;7898;48.658;9.068;2023-09-30T12:23:59;12.07;;;6.50;;
15595;SDS011;7898;48.658;9.068;2023-09-30T12:26:28;14.77;;;6.97;;
15595;SDS011;7898;48.658;9.068;2023-09-30T12:28:55;11.50;;;6.15;;
15595;SDS011;7898;48.658;9.068;2023-09-30T12:31:22;12.30;;;6.10;;
15595;SDS011;7898;48.658;9.068;2023-09-30T12:33:49;9.55;;;5.68;;
15595;SDS011;7898;48.658;9.068;2023-09-30T12:36:17;9.82;;;5.13;;
15595;SDS011;7898;48.658;9.068;2023-09-30T12:38:44;9.80;;;5.40;;
15595;SDS011;7898;48.658;9.068;2023-09-30T12:41:10;10.35;;;5.40;;
15595;SDS011;7898;48.658;9.068;2023-09-30T12:43:39;11.05;;;5.78;;
15595;SDS011;7898;48.658;9.068;2023-09-30T12:46:07;10.45;;;5.90;;
15595;SDS011;7898;48.658;9.068;2023-09-30T12:48:34;12.13;;;5.55;;
15595;SDS011;7898;48.658;9.068;2023-09-30T12:51:03;9.18;;;5.82;;
15595;SDS011;7898;48.658;9.068;2023-09-30T12:53:31;11.15;;;5.72;;
15595;SDS011;7898;48.658;9.068;2023-09-30T12:55:58;9.32;;;5.90;;
15595;SDS011;7898;48.658;9.068;2023-09-30T12:58:25;9.35;;;5.70;;
15595;SDS011;7898;48.658;9.068;2023-09-30T13:00:55;7.82;;;5.25;;
15595;SDS011;7898;48.658;9.068;2023-09-30T13:03:22;8.80;;;5.20;;
15595;SDS011;7898;48.658;9.068;2023-09-30T13:05:49;9.07;;;5.32;;
15595;SDS011;7898;48.658;9.068;2023-09-30T13:08:16;8.63;;;5.38;;
15595;SDS011;7898;48.658;9.068;2023-09-30T13:10:43;9.60;;;5.82;;
15595;SDS011;7898;48.658;9.068;2023-09-30T13:13:10;9.32;;;5.32;;
15595;SDS011;7898;48.658;9.068;2023-09-30T13:15:37;8.77;;;5.22;;
15595;SDS011;7898;48.658;9.068;2023-09-30T13:18:04;10.77;;;5.43;;
15595;SDS011;7898;48.658;9.068;2023-09-30T13:20:31;8.15;;;5.05;;
15595;SDS011;7898;48.658;9.068;2023-09-30T13:22:58;9.10;;;5.20;;
15595;SDS011;7898;48.658;9.068;2023-09-30T13:25:25;8.90;;;4.80;;
15595;SDS011;7898;48.658;9.068;2023-09-30T13:27:53;8.05;;;5.22;;
15595;SDS011;7898;48.658;9.068;2023-09-30T13:30:20;10.90;;;6.00;;
15595;SDS011;7898;48.658;9.068;2023-09-30T13:32:48;10.52;;;5.68;;
15595;SDS011;7898;48.658;9.068;2023-09-30T13:35:16;8.07;;;5.10;;
15595;SDS011;7898;48.658;9.068;2023-09-30T13:37:44;12.93;;;6.20;;
15595;SDS011;7898;48.658;9.068;2023-09-30T13:40:11;9.43;;;5.82;;
15595;SDS011;7898;48.658;9.068;2023-09-30T13:42:38;9.25;;;5.93;;
15595;SDS011;7898;48.658;9.068;2023-09-30T13:45:07;9.70;;;5.55;;
15595;SDS011;7898;48.658;9.068;2023-09-30T13:47:35;13.00;;;6.72;;
15595;SDS011;7898;48.658;9.068;2023-09-30T13:50:02;8.45;;;5.40;;
15595;SDS011;7898;48.658;9.068;2023-09-30T13:52:33;7.43;;;4.78;;
15595;SDS011;7898;48.658;9.068;2023-09-30T13:55:00;10.60;;;5.25;;
15595;SDS011;7898;48.658;9.068;2023-09-30T13:57:27;9.80;;;5.75;;
15595;SDS011;7898;48.658;9.068;2023-09-30T13:59:54;10.38;;;5.82;;
15595;SDS011;7898;48.658;9.068;2023-09-30T14:02:21;11.63;;;6.32;;
15595;SDS011;7898;48.658;9.068;2023-09-30T14:04:49;8.73;;;5.38;;
15595;SDS011;7898;48.658;9.068;2023-09-30T14:07:16;8.70;;;4.70;;
15595;SDS011;7898;48.658;9.068;2023-09-30T14:09:45;8.98;;;4.93;;
15595;SDS011;7898;48.658;9.068;2023-09-30T14:12:12;16.30;;;5.68;;
15595;SDS011;7898;48.658;9.068;2023-09-30T14:14:39;11.55;;;5.05;;
15595;SDS011;7898;48.658;9.068;2023-09-30T14:17:06;10.35;;;5.07;;
15595;SDS011;7898;48.658;9.068;2023-09-30T14:19:35;8.50;;;5.13;;
15595;SDS011;7898;48.658;9.068;2023-09-30T14:22:03;9.80;;;5.28;;
15595;SDS011;7898;48.658;9.068;2023-09-30T14:24:31;8.70;;;5.25;;
15595;SDS011;7898;48.658;9.068;2023-09-30T14:27:00;9.52;;;5.10;;
15595;SDS011;7898;48.658;9.068;2023-09-30T14:29:28;9.52;;;5.30;;
15595;SDS011;7898;48.658;9.068;2023-09-30T14:31:55;10.45;;;5.20;;
15595;SDS011;7898;48.658;9.068;2023-09-30T14:34:22;9.20;;;5.28;;
15595;SDS011;7898;48.658;9.068;2023-09-30T14:36:49;8.07;;;5.00;;
15595;SDS011;7898;48.658;9.068;2023-09-30T14:39:16;8.35;;;5.22;;
15595;SDS011;7898;48.658;9.068;2023-09-30T14:41:43;10.93;;;5.57;;
15595;SDS011;7898;48.658;9.068;2023-09-30T14:44:11;8.75;;;4.85;;
15595;SDS011;7898;48.658;9.068;2023-09-30T14:46:38;10.73;;;5.53;;
15595;SDS011;7898;48.658;9.068;2023-09-30T14:49:05;8.13;;;4.82;;
15595;SDS011;7898;48.658;9.068;2023-09-30T14:51:33;11.50;;;5.25;;
15595;SDS011;7898;48.658;9.068;2023-09-30T14:54:00;9.13;;;5.05;;
15595;SDS011;7898;48.658;9.068;2023-09-30T14:56:27;9.15;;;5.13;;
15595;SDS011;7898;48.658;9.068;2023-09-30T14:58:54;8.02;;;5.40;;
15595;SDS011;7898;48.658;9.068;2023-09-30T15:01:23;8.85;;;5.30;;
15595;SDS011;7898;48.658;9.068;2023-09-30T15:03:51;10.82;;;6.50;;
15595;SDS011;7898;48.658;9.068;2023-09-30T15:06:18;24.50;;;15.52;;
15595;SDS011;7898;48.658;9.068;2023-09-30T15:08:46;52.58;;;33.10;;
15595;SDS011;7898;48.658;9.068;2023-09-30T15:11:13;24.40;;;18.30;;
15595;SDS011;7898;48.658;9.068;2023-09-30T15:13:41;26.00;;;19.55;;
15595;SDS011;7898;48.658;9.068;2023-09-30T15:16:14;9.82;;;5.85;;
15595;SDS011;7898;48.658;9.068;2023-09-30T15:18:43;12.63;;;6.82;;
15595;SDS011;7898;48.658;9.068;2023-09-30T15:21:10;7.88;;;4.90;;
15595;SDS011;7898;48.658;9.068;2023-09-30T15:23:37;8.13;;;5.13;;